createdAt,value
2018-12-27T00:00:53.817Z,3.53
2018-12-27T00:03:24.219Z,3.52
2018-12-27T00:05:54.659Z,3.52
2018-12-27T00:08:25.119Z,3.51
2018-12-27T00:10:58.645Z,3.51
2018-12-27T00:13:29.089Z,3.52
2018-12-27T00:15:59.541Z,3.49
2018-12-27T00:18:29.900Z,3.48
2018-12-27T00:21:00.292Z,3.48
2018-12-27T00:23:30.708Z,3.48
2018-12-27T00:26:01.289Z,3.50
2018-12-27T00:28:31.815Z,3.49
2018-12-27T00:31:02.548Z,3.51
2018-12-27T00:33:35.127Z,3.50
2018-12-27T00:36:05.884Z,3.49
2018-12-27T00:38:36.546Z,3.50
2018-12-27T00:41:07.273Z,3.50
2018-12-27T00:43:37.883Z,3.48
2018-12-27T00:46:08.787Z,3.51
2018-12-27T00:48:39.374Z,3.50
2018-12-27T00:51:09.987Z,3.48
2018-12-27T00:53:40.639Z,3.49
2018-12-27T00:56:11.272Z,3.47
2018-12-27T00:58:41.910Z,3.47
2018-12-27T01:01:12.534Z,3.47
2018-12-27T01:03:43.513Z,3.49
2018-12-27T01:06:14.070Z,3.49
2018-12-27T01:08:48.535Z,3.49
2018-12-27T01:11:19.128Z,3.47
2018-12-27T01:13:49.827Z,3.47
2018-12-27T01:16:20.389Z,3.48
2018-12-27T01:18:51.047Z,3.48
2018-12-27T01:21:21.798Z,3.45
2018-12-27T01:23:52.450Z,3.43
2018-12-27T01:26:29.058Z,3.42
2018-12-27T01:28:59.719Z,3.43
2018-12-27T01:31:30.353Z,3.43
2018-12-27T01:34:03.961Z,3.44
2018-12-27T01:36:34.670Z,3.43
2018-12-27T01:39:06.889Z,3.43
2018-12-27T01:41:37.530Z,3.43
2018-12-27T01:44:09.079Z,3.46
2018-12-27T01:46:39.745Z,3.42
2018-12-27T01:49:10.378Z,3.44
2018-12-27T01:51:44.391Z,3.45
2018-12-27T01:54:27.279Z,3.43
2018-12-27T01:56:58.573Z,3.44
2018-12-27T01:59:31.522Z,3.44
2018-12-27T02:02:03.325Z,3.46
2018-12-27T02:04:34.046Z,3.45
2018-12-27T02:07:06.778Z,3.45
2018-12-27T02:09:40.353Z,3.44
2018-12-27T02:12:10.960Z,3.44
2018-12-27T02:14:41.984Z,3.43
2018-12-27T02:17:12.750Z,3.41
2018-12-27T02:19:45.408Z,3.40
2018-12-27T02:22:17.060Z,3.38
2018-12-27T02:24:49.604Z,3.41
2018-12-27T02:27:21.613Z,3.40
2018-12-27T02:29:58.568Z,3.40
2018-12-27T02:32:30.146Z,3.38
2018-12-27T02:35:00.737Z,3.38
2018-12-27T02:37:33.891Z,3.36
2018-12-27T02:40:04.479Z,3.39
2018-12-27T02:42:40.098Z,3.39
2018-12-27T02:45:19.178Z,3.39
2018-12-27T02:47:50.848Z,3.39
2018-12-27T02:50:21.818Z,3.39
2018-12-27T02:52:52.428Z,3.40
2018-12-27T02:55:23.247Z,3.38
2018-12-27T02:57:53.881Z,3.36
2018-12-27T03:00:24.469Z,3.37
2018-12-27T03:02:57.107Z,3.37
2018-12-27T03:05:27.733Z,3.33
2018-12-27T03:07:58.731Z,3.29
2018-12-27T03:10:29.430Z,3.27
2018-12-27T03:12:59.965Z,3.26
2018-12-27T03:15:30.559Z,3.23
2018-12-27T03:18:02.114Z,3.24
2018-12-27T03:20:32.781Z,3.21
2018-12-27T03:23:03.377Z,3.18
2018-12-27T03:25:33.966Z,3.15
2018-12-27T03:28:04.538Z,3.12
2018-12-27T03:30:35.181Z,3.10
2018-12-27T03:33:05.849Z,3.09
2018-12-27T03:35:36.460Z,3.07
2018-12-27T03:38:09.514Z,3.04
2018-12-27T03:40:40.448Z,3.01
2018-12-27T03:43:11.086Z,3.02
2018-12-27T03:45:41.845Z,3.00
2018-12-27T03:48:12.415Z,3.00
2018-12-27T03:50:43.019Z,2.94
2018-12-27T03:53:13.642Z,2.91
2018-12-27T03:55:44.923Z,2.90
2018-12-27T03:58:15.582Z,2.89
2018-12-27T04:00:46.208Z,2.89
2018-12-27T04:03:16.852Z,2.87
2018-12-27T04:05:49.377Z,2.86
2018-12-27T04:08:20.037Z,2.85
2018-12-27T04:10:50.656Z,2.83
2018-12-27T04:13:21.277Z,2.84
2018-12-27T04:15:51.751Z,2.83
2018-12-27T04:18:23.269Z,2.83
2018-12-27T04:20:53.643Z,2.83
2018-12-27T04:23:24.526Z,2.83
2018-12-27T04:26:22.925Z,2.82
2018-12-27T04:28:50.645Z,2.83
2018-12-27T04:31:21.339Z,2.84
2018-12-27T04:33:52.452Z,2.84
2018-12-27T04:36:23.037Z,2.83
2018-12-27T04:38:55.350Z,2.83
2018-12-27T04:41:25.829Z,2.83
2018-12-27T04:43:58.969Z,2.85
2018-12-27T04:46:29.425Z,2.84
2018-12-27T04:48:59.809Z,2.83
2018-12-27T04:51:31.990Z,2.83
2018-12-27T04:54:04.809Z,2.84
2018-12-27T04:56:39.445Z,2.81
2018-12-27T04:59:09.901Z,2.82
2018-12-27T05:01:42.760Z,2.82
2018-12-27T05:04:18.138Z,2.81
2018-12-27T05:06:46.751Z,2.79
2018-12-27T05:09:17.174Z,2.77
2018-12-27T05:11:50.633Z,2.77
2018-12-27T05:14:21.006Z,2.74
2018-12-27T05:16:51.445Z,2.74
2018-12-27T05:19:22.144Z,2.71
2018-12-27T05:21:52.473Z,2.73
2018-12-27T05:24:22.948Z,2.71
2018-12-27T05:26:53.599Z,2.70
2018-12-27T05:29:24.058Z,2.72
2018-12-27T05:31:54.495Z,2.71
2018-12-27T05:34:26.321Z,2.71
2018-12-27T05:36:57.399Z,2.73
2018-12-27T05:39:27.916Z,2.71
2018-12-27T05:41:59.204Z,2.68
2018-12-27T05:44:29.559Z,2.70
2018-12-27T05:46:59.990Z,2.71
2018-12-27T05:49:30.442Z,2.68
2018-12-27T05:52:00.876Z,2.65
2018-12-27T05:54:33.496Z,2.68
2018-12-27T05:57:04.228Z,2.65
2018-12-27T05:59:34.616Z,2.64
2018-12-27T06:02:05.109Z,2.67
2018-12-27T06:04:35.638Z,2.65
2018-12-27T06:07:06.080Z,2.62
2018-12-27T06:09:36.478Z,2.60
2018-12-27T06:12:06.939Z,2.60
2018-12-27T06:14:37.450Z,2.58
2018-12-27T06:17:07.815Z,2.55
2018-12-27T06:19:38.262Z,2.54
2018-12-27T06:22:08.718Z,2.52
2018-12-27T06:24:39.358Z,2.49
2018-12-27T06:27:11.438Z,2.46
2018-12-27T06:29:43.451Z,2.44
2018-12-27T06:32:14.177Z,2.44
2018-12-27T06:34:44.705Z,2.42
2018-12-27T06:37:15.371Z,2.43
2018-12-27T06:39:46.965Z,2.43
2018-12-27T06:42:17.578Z,2.40
2018-12-27T06:44:47.996Z,2.39
2018-12-27T06:47:18.492Z,2.41
2018-12-27T06:49:48.943Z,2.38
2018-12-27T06:52:19.660Z,2.36
2018-12-27T06:54:50.008Z,2.34
2018-12-27T06:57:21.356Z,2.32
2018-12-27T06:59:51.702Z,2.27
2018-12-27T07:02:22.348Z,2.28
2018-12-27T07:04:52.770Z,2.28
2018-12-27T07:07:23.494Z,2.26
2018-12-27T07:09:56.383Z,2.25
2018-12-27T07:12:27.668Z,2.24
2018-12-27T07:15:00.341Z,2.24
2018-12-27T07:17:32.552Z,2.23
2018-12-27T07:20:03.317Z,2.20
2018-12-27T07:22:33.690Z,2.18
2018-12-27T07:25:06.218Z,2.18
2018-12-27T07:27:36.618Z,2.18
2018-12-27T07:30:07.613Z,2.14
2018-12-27T07:32:39.039Z,2.17
2018-12-27T07:35:09.523Z,2.17
2018-12-27T07:37:40.235Z,2.16
2018-12-27T07:40:10.733Z,2.18
2018-12-27T07:42:41.237Z,2.18
2018-12-27T07:45:11.587Z,2.21
2018-12-27T07:47:42.152Z,2.21
2018-12-27T07:50:12.495Z,2.25
2018-12-27T07:52:43.006Z,2.27
2018-12-27T07:55:13.479Z,2.28
2018-12-27T07:57:43.941Z,2.30
2018-12-27T08:00:14.413Z,2.33
2018-12-27T08:02:47.677Z,2.34
2018-12-27T08:05:18.077Z,2.35
2018-12-27T08:07:48.536Z,2.37
2018-12-27T08:10:22.115Z,2.36
2018-12-27T08:12:52.454Z,2.38
2018-12-27T08:15:22.883Z,2.41
2018-12-27T08:17:53.321Z,2.41
2018-12-27T08:20:23.758Z,2.45
2018-12-27T08:22:57.246Z,2.48
2018-12-27T08:25:27.606Z,2.54
2018-12-27T08:27:57.995Z,2.57
2018-12-27T08:30:28.294Z,2.63
2018-12-27T08:32:58.725Z,2.66
2018-12-27T08:35:32.631Z,2.69
2018-12-27T08:38:03.426Z,2.71
2018-12-27T08:40:34.265Z,2.77
2018-12-27T08:43:06.139Z,2.80
2018-12-27T08:45:36.494Z,2.83
2018-12-27T08:48:06.849Z,2.82
2018-12-27T08:50:37.213Z,2.87
2018-12-27T08:53:10.613Z,2.87
2018-12-27T08:55:40.968Z,2.90
2018-12-27T08:58:11.356Z,2.94
2018-12-27T09:00:41.758Z,2.89
2018-12-27T09:03:12.185Z,2.93
2018-12-27T09:05:42.569Z,2.96
2018-12-27T09:08:12.995Z,2.98
2018-12-27T09:10:43.372Z,3.01
2018-12-27T09:13:14.020Z,3.04
2018-12-27T09:15:44.380Z,3.10
2018-12-27T09:18:17.783Z,3.15
2018-12-27T09:20:48.289Z,3.17
2018-12-27T09:23:18.713Z,3.21
2018-12-27T09:25:49.144Z,3.29
2018-12-27T09:28:19.613Z,3.33
2018-12-27T09:30:50.109Z,3.37
2018-12-27T09:33:22.752Z,3.42
2018-12-27T09:35:53.154Z,3.48
2018-12-27T09:38:23.608Z,3.53
2018-12-27T09:40:54.932Z,3.57
2018-12-27T09:43:28.124Z,3.66
2018-12-27T09:46:01.244Z,3.76
2018-12-27T09:48:31.617Z,3.82
2018-12-27T09:51:02.165Z,3.91
2018-12-27T09:53:32.622Z,3.95
2018-12-27T09:56:03.031Z,3.95
2018-12-27T09:58:33.678Z,3.99
2018-12-27T10:01:04.006Z,4.07
2018-12-27T10:03:34.437Z,4.15
2018-12-27T10:06:04.996Z,4.28
2018-12-27T10:08:35.454Z,4.37
2018-12-27T10:11:06.052Z,4.55
2018-12-27T10:13:36.526Z,4.62
2018-12-27T10:16:06.841Z,4.63
2018-12-27T10:18:37.243Z,4.63
2018-12-27T10:21:07.592Z,4.66
2018-12-27T10:23:38.017Z,4.75
2018-12-27T10:26:08.423Z,4.76
2018-12-27T10:28:38.810Z,4.79
2018-12-27T10:31:12.269Z,4.87
2018-12-27T10:33:42.671Z,4.93
2018-12-27T10:36:13.531Z,5.06
2018-12-27T10:38:49.266Z,5.11
2018-12-27T10:41:19.642Z,5.33
2018-12-27T10:43:52.511Z,5.37
2018-12-27T10:46:23.493Z,5.37
2018-12-27T10:48:56.663Z,5.37
2018-12-27T10:51:26.899Z,5.37
2018-12-27T10:53:57.430Z,5.55
2018-12-27T10:56:27.846Z,5.63
2018-12-27T10:58:58.857Z,5.63
2018-12-27T11:01:29.320Z,5.63
2018-12-27T11:03:59.824Z,5.66
2018-12-27T11:06:30.835Z,5.62
2018-12-27T11:09:01.453Z,5.63
2018-12-27T11:11:31.823Z,5.71
2018-12-27T11:14:02.159Z,5.75
2018-12-27T11:16:32.542Z,5.74
2018-12-27T11:19:05.501Z,5.78
2018-12-27T11:21:39.164Z,5.80
2018-12-27T11:24:09.505Z,5.86
2018-12-27T11:26:39.854Z,5.91
2018-12-27T11:29:13.406Z,5.96
2018-12-27T11:31:46.864Z,6.07
2018-12-27T11:34:20.655Z,6.15
2018-12-27T11:36:54.777Z,6.28
2018-12-27T11:39:26.908Z,6.28
2018-12-27T11:41:57.467Z,6.30
2018-12-27T11:44:27.863Z,6.31
2018-12-27T11:46:58.240Z,6.33
2018-12-27T11:49:28.950Z,6.35
2018-12-27T11:51:59.469Z,6.32
2018-12-27T11:54:29.906Z,6.36
2018-12-27T11:57:00.185Z,6.43
2018-12-27T11:59:30.607Z,6.42
2018-12-27T12:02:01.158Z,6.38
2018-12-27T12:04:31.643Z,6.36
2018-12-27T12:07:02.159Z,6.39
2018-12-27T12:09:32.531Z,6.44
2018-12-27T12:12:02.910Z,6.44
2018-12-27T12:14:36.853Z,6.50
2018-12-27T12:17:07.580Z,6.57
2018-12-27T12:19:38.058Z,6.67
2018-12-27T12:22:10.466Z,6.82
2018-12-27T12:24:40.986Z,7.12
2018-12-27T12:27:11.369Z,7.52
2018-12-27T12:29:41.740Z,8.03
2018-12-27T12:32:13.864Z,8.46
2018-12-27T12:34:45.809Z,9.07
2018-12-27T12:37:16.266Z,9.45
2018-12-27T12:39:49.786Z,9.74
2018-12-27T12:42:32.500Z,9.66
2018-12-27T12:44:53.262Z,9.23
2018-12-27T12:47:23.657Z,8.99
2018-12-27T12:49:54.739Z,8.87
2018-12-27T12:52:27.805Z,8.62
2018-12-27T12:55:01.028Z,8.27
2018-12-27T12:57:31.377Z,7.95
2018-12-27T13:00:01.810Z,7.80
2018-12-27T13:02:32.203Z,7.88
2018-12-27T13:05:06.464Z,7.82
2018-12-27T13:07:36.845Z,7.84
2018-12-27T13:10:07.209Z,7.73
2018-12-27T13:12:37.658Z,7.64
2018-12-27T13:15:08.344Z,7.69
2018-12-27T13:17:38.968Z,7.56
2018-12-27T13:20:10.019Z,7.48
2018-12-27T13:22:40.438Z,7.43
2018-12-27T13:25:13.862Z,7.39
2018-12-27T13:27:44.286Z,7.37
2018-12-27T13:30:14.616Z,7.44
2018-12-27T13:32:44.986Z,7.37
2018-12-27T13:35:15.359Z,7.35
2018-12-27T13:37:45.737Z,7.35
2018-12-27T13:40:16.063Z,7.34
2018-12-27T13:42:46.710Z,7.31
2018-12-27T13:45:17.022Z,7.23
2018-12-27T13:47:49.334Z,7.16
2018-12-27T13:50:21.990Z,7.13
2018-12-27T13:52:52.449Z,7.15
2018-12-27T13:55:22.814Z,7.28
2018-12-27T13:57:53.277Z,7.29
2018-12-27T14:00:23.752Z,7.24
2018-12-27T14:02:54.227Z,7.16
2018-12-27T14:05:25.490Z,7.08
2018-12-27T14:07:58.445Z,7.13
2018-12-27T14:10:28.859Z,7.13
2018-12-27T14:12:59.413Z,7.22
2018-12-27T14:15:33.360Z,7.19
2018-12-27T14:18:03.699Z,7.20
2018-12-27T14:20:34.020Z,7.24
2018-12-27T14:23:04.507Z,7.18
2018-12-27T14:25:38.039Z,7.18
2018-12-27T14:28:10.709Z,7.12
2018-12-27T14:30:41.132Z,7.12
2018-12-27T14:33:11.765Z,7.10
2018-12-27T14:35:42.214Z,7.09
2018-12-27T14:38:12.919Z,7.05
2018-12-27T14:40:43.279Z,7.04
2018-12-27T14:43:13.677Z,7.01
2018-12-27T14:45:44.086Z,7.00
2018-12-27T14:48:14.528Z,6.97
2018-12-27T14:50:44.880Z,6.95
2018-12-27T14:53:15.234Z,6.91
2018-12-27T14:55:48.662Z,6.85
2018-12-27T14:58:19.224Z,6.84
2018-12-27T15:00:49.942Z,6.81
2018-12-27T15:03:20.362Z,6.82
2018-12-27T15:05:50.713Z,6.83
2018-12-27T15:08:21.539Z,6.77
2018-12-27T15:10:51.952Z,6.75
2018-12-27T15:13:24.659Z,6.95
2018-12-27T15:15:55.029Z,6.90
2018-12-27T15:18:31.305Z,7.04
2018-12-27T15:21:02.121Z,7.00
2018-12-27T15:23:34.496Z,6.99
2018-12-27T15:26:05.223Z,6.94
2018-12-27T15:28:35.664Z,6.91
2018-12-27T15:31:06.399Z,6.90
2018-12-27T15:33:36.986Z,6.86
2018-12-27T15:36:07.538Z,6.83
2018-12-27T15:38:37.973Z,6.73
2018-12-27T15:41:08.361Z,6.66
2018-12-27T15:43:38.770Z,6.54
2018-12-27T15:46:09.373Z,6.48
2018-12-27T15:48:39.785Z,6.43
2018-12-27T15:51:11.562Z,6.37
2018-12-27T15:53:42.029Z,6.33
2018-12-27T15:56:12.443Z,6.27
2018-12-27T15:58:42.843Z,6.20
2018-12-27T16:01:13.240Z,6.14
2018-12-27T16:03:43.979Z,6.09
2018-12-27T16:06:14.361Z,6.07
2018-12-27T16:08:44.773Z,6.05
2018-12-27T16:11:15.126Z,6.03
2018-12-27T16:13:45.468Z,6.01
2018-12-27T16:16:15.998Z,5.98
2018-12-27T16:18:46.431Z,5.98
2018-12-27T16:21:17.034Z,5.97
2018-12-27T16:23:47.400Z,5.96
2018-12-27T16:26:18.705Z,5.93
2018-12-27T16:28:49.490Z,5.90
2018-12-27T16:31:20.811Z,5.88
2018-12-27T16:33:51.160Z,5.84
2018-12-27T16:36:21.490Z,5.81
2018-12-27T16:38:51.858Z,5.78
2018-12-27T16:41:23.359Z,5.78
2018-12-27T16:43:53.792Z,5.78
2018-12-27T16:46:24.402Z,5.76
2018-12-27T16:48:54.809Z,5.74
2018-12-27T16:51:25.422Z,5.73
2018-12-27T16:53:55.774Z,5.72
2018-12-27T16:56:26.370Z,5.71
2018-12-27T16:58:56.785Z,5.71
2018-12-27T17:01:27.098Z,5.71
2018-12-27T17:03:57.537Z,5.71
2018-12-27T17:06:28.231Z,5.75
2018-12-27T17:08:58.596Z,5.76
2018-12-27T17:11:29.384Z,5.76
2018-12-27T17:14:00.166Z,5.82
2018-12-27T17:16:30.631Z,5.83
2018-12-27T17:19:01.090Z,5.82
2018-12-27T17:21:31.575Z,5.81
2018-12-27T17:24:01.923Z,5.81
2018-12-27T17:26:32.326Z,5.83
2018-12-27T17:29:02.685Z,5.82
2018-12-27T17:31:33.103Z,5.82
2018-12-27T17:34:03.511Z,5.79
2018-12-27T17:36:33.708Z,5.76
2018-12-27T17:39:05.868Z,5.75
2018-12-27T17:41:36.390Z,5.73
2018-12-27T17:44:06.978Z,5.71
2018-12-27T17:46:37.454Z,5.71
2018-12-27T17:49:08.009Z,5.70
2018-12-27T17:51:38.341Z,5.68
2018-12-27T17:54:08.656Z,5.65
2018-12-27T17:56:39.006Z,5.67
2018-12-27T17:59:09.381Z,5.68
2018-12-27T18:01:39.872Z,5.69
2018-12-27T18:04:10.737Z,5.68
2018-12-27T18:06:42.070Z,5.65
2018-12-27T18:09:12.651Z,5.61
2018-12-27T18:11:42.978Z,5.58
2018-12-27T18:14:13.352Z,5.55
2018-12-27T18:16:43.657Z,5.54
2018-12-27T18:19:14.053Z,5.51
2018-12-27T18:21:44.375Z,5.48
2018-12-27T18:24:14.741Z,5.46
2018-12-27T18:26:45.032Z,5.45
2018-12-27T18:29:15.398Z,5.43
2018-12-27T18:31:45.791Z,5.40
2018-12-27T18:34:16.128Z,5.40
2018-12-27T18:36:46.486Z,5.37
2018-12-27T18:39:16.846Z,5.34
2018-12-27T18:41:47.207Z,5.33
2018-12-27T18:44:17.602Z,5.33
2018-12-27T18:46:48.150Z,5.34
2018-12-27T18:49:20.767Z,5.38
2018-12-27T18:51:50.865Z,5.38
2018-12-27T18:54:21.527Z,5.40
2018-12-27T18:56:51.914Z,5.41
2018-12-27T18:59:22.228Z,5.44
2018-12-27T19:01:52.607Z,5.45
2018-12-27T19:04:22.966Z,5.48
2018-12-27T19:06:53.336Z,5.49
2018-12-27T19:09:26.758Z,5.49
2018-12-27T19:12:32.413Z,5.52
2018-12-27T19:15:06.749Z,5.52
2018-12-27T19:17:46.647Z,5.50
2018-12-27T19:20:17.083Z,5.47
2018-12-27T19:23:19.663Z,5.48
2018-12-27T19:25:50.542Z,5.47
2018-12-27T19:28:21.508Z,5.47
2018-12-27T19:30:51.928Z,5.45
2018-12-27T19:33:25.083Z,5.44
2018-12-27T19:35:55.467Z,5.43
2018-12-27T19:38:25.936Z,5.44
2018-12-27T19:40:56.378Z,5.44
2018-12-27T19:43:27.407Z,5.41
2018-12-27T19:45:57.848Z,5.43
2018-12-27T19:48:31.437Z,5.43
2018-12-27T19:51:04.240Z,5.43
2018-12-27T19:53:34.606Z,5.42
2018-12-27T19:56:06.239Z,5.42
2018-12-27T19:58:36.577Z,5.42
2018-12-27T20:01:06.992Z,5.42
2018-12-27T20:03:37.357Z,5.42
2018-12-27T20:06:07.802Z,5.41
2018-12-27T20:08:38.283Z,5.41
2018-12-27T20:11:08.798Z,5.36
2018-12-27T20:13:39.145Z,5.37
2018-12-27T20:16:12.700Z,5.38
2018-12-27T20:18:43.214Z,5.38
2018-12-27T20:21:13.624Z,5.40
2018-12-27T20:23:44.024Z,5.39
2018-12-27T20:26:18.164Z,5.42
2018-12-27T20:28:49.175Z,5.40
2018-12-27T20:31:24.179Z,5.36
2018-12-27T20:33:54.659Z,5.31
2018-12-27T20:36:25.235Z,5.26
2018-12-27T20:38:57.153Z,5.17
2018-12-27T20:41:29.622Z,5.10
2018-12-27T20:44:05.460Z,5.08
2018-12-27T20:46:35.986Z,5.08
2018-12-27T20:49:06.410Z,5.01
2018-12-27T20:51:39.502Z,5.04
2018-12-27T20:54:12.430Z,5.04
2018-12-27T20:56:43.108Z,5.03
2018-12-27T20:59:13.467Z,5.02
2018-12-27T21:01:43.968Z,5.02
2018-12-27T21:04:14.679Z,5.04
2018-12-27T21:06:45.179Z,5.03
2018-12-27T21:09:15.773Z,4.99
2018-12-27T21:11:46.342Z,4.98
2018-12-27T21:14:16.927Z,5.00
2018-12-27T21:16:47.266Z,5.00
2018-12-27T21:19:17.700Z,5.00
2018-12-27T21:21:50.740Z,5.03
2018-12-27T21:24:21.151Z,5.05
2018-12-27T21:26:51.506Z,5.06
2018-12-27T21:29:21.963Z,5.04
2018-12-27T21:31:52.463Z,5.03
2018-12-27T21:34:22.840Z,5.04
2018-12-27T21:36:56.278Z,5.05
2018-12-27T21:39:26.826Z,5.06
2018-12-27T21:41:57.201Z,5.07
2018-12-27T21:44:30.074Z,5.08
2018-12-27T21:47:00.576Z,5.08
2018-12-27T21:49:30.950Z,5.13
2018-12-27T21:52:01.306Z,5.11
2018-12-27T21:54:32.186Z,5.09
2018-12-27T21:57:02.768Z,5.04
2018-12-27T21:59:33.863Z,5.04
2018-12-27T22:02:04.563Z,5.01
2018-12-27T22:04:35.232Z,5.00
2018-12-27T22:07:06.334Z,5.02
2018-12-27T22:09:37.482Z,5.01
2018-12-27T22:12:09.870Z,5.00
2018-12-27T22:14:40.532Z,5.02
2018-12-27T22:17:10.979Z,5.01
2018-12-27T22:19:43.812Z,4.98
2018-12-27T22:22:15.749Z,4.94
2018-12-27T22:24:48.460Z,4.95
2018-12-27T22:27:22.535Z,4.94
2018-12-27T22:29:54.417Z,4.91
2018-12-27T22:32:28.484Z,4.90
2018-12-27T22:35:01.746Z,4.90
2018-12-27T22:37:38.478Z,4.91
2018-12-27T22:40:09.682Z,4.89
2018-12-27T22:42:43.014Z,4.88
2018-12-27T22:45:13.578Z,4.86
2018-12-27T22:47:46.816Z,4.86
2018-12-27T22:50:17.468Z,4.86
2018-12-27T22:52:48.447Z,4.85
2018-12-27T22:55:18.980Z,4.85
2018-12-27T22:57:50.083Z,4.85
2018-12-27T23:00:36.296Z,4.83
2018-12-27T23:03:09.180Z,4.84
2018-12-27T23:05:39.646Z,4.82
2018-12-27T23:08:10.066Z,4.81
2018-12-27T23:10:40.869Z,4.81
2018-12-27T23:13:11.780Z,4.81
2018-12-27T23:15:44.181Z,4.79
2018-12-27T23:18:17.802Z,4.78
2018-12-27T23:20:48.237Z,4.78
2018-12-27T23:23:18.646Z,4.75
2018-12-27T23:25:49.138Z,4.72
2018-12-27T23:28:19.813Z,4.71
2018-12-27T23:30:50.866Z,4.70
2018-12-27T23:33:21.932Z,4.64
2018-12-27T23:35:55.827Z,4.63
2018-12-27T23:38:28.507Z,4.61
2018-12-27T23:41:03.855Z,4.56
2018-12-27T23:43:35.167Z,4.55
2018-12-27T23:46:07.555Z,4.50
2018-12-27T23:48:38.845Z,4.50
2018-12-27T23:51:09.533Z,4.47
2018-12-27T23:53:40.587Z,4.46
2018-12-27T23:56:11.629Z,4.46
2018-12-27T23:58:43.956Z,4.45
